createdAt,value
2019-05-01T00:00:16.037Z,8.33
2019-05-01T00:03:05.187Z,8.60
2019-05-01T00:05:52.214Z,8.15
2019-05-01T00:08:37.201Z,9.10
2019-05-01T00:11:22.250Z,8.48
2019-05-01T00:14:07.658Z,8.03
2019-05-01T00:16:52.749Z,8.90
2019-05-01T00:19:37.425Z,8.58
2019-05-01T00:22:22.222Z,7.95
2019-05-01T00:25:07.072Z,8.40
2019-05-01T00:27:52.110Z,8.08
2019-05-01T00:30:37.186Z,7.33
2019-05-01T00:33:22.344Z,8.53
2019-05-01T00:36:07.413Z,8.00
2019-05-01T00:38:52.271Z,8.38
2019-05-01T00:41:37.101Z,8.00
2019-05-01T00:44:21.899Z,7.97
2019-05-01T00:47:06.652Z,7.80
2019-05-01T00:49:51.486Z,8.65
2019-05-01T00:52:36.179Z,8.38
2019-05-01T00:55:38.116Z,7.92
2019-05-01T00:58:33.701Z,8.58
2019-05-01T01:01:37.318Z,8.25
2019-05-01T01:04:22.629Z,8.78
2019-05-01T01:07:07.473Z,8.50
2019-05-01T01:09:52.087Z,8.53
2019-05-01T01:12:36.921Z,9.13
2019-05-01T01:15:21.597Z,8.20
2019-05-01T01:18:06.344Z,8.25
2019-05-01T01:20:51.218Z,8.78
2019-05-01T01:23:36.510Z,8.40
2019-05-01T01:26:21.421Z,10.00
2019-05-01T01:29:06.802Z,8.70
2019-05-01T01:31:52.013Z,8.25
2019-05-01T01:34:36.768Z,9.55
2019-05-01T01:37:21.466Z,8.03
2019-05-01T01:40:06.831Z,8.28
2019-05-01T01:42:53.701Z,8.30
2019-05-01T01:45:43.260Z,8.50
2019-05-01T01:48:47.971Z,8.88
2019-05-01T01:51:32.933Z,8.45
2019-05-01T01:54:18.505Z,8.35
2019-05-01T01:57:17.383Z,7.75
2019-05-01T02:00:06.578Z,9.25
2019-05-01T02:02:56.483Z,8.90
2019-05-01T02:05:43.789Z,9.03
2019-05-01T02:08:28.821Z,8.40
2019-05-01T02:11:27.321Z,9.28
2019-05-01T02:14:12.305Z,9.25
2019-05-01T02:16:57.220Z,9.13
2019-05-01T02:19:42.630Z,8.80
2019-05-01T02:22:27.437Z,8.20
2019-05-01T02:25:13.469Z,8.08
2019-05-01T02:28:17.218Z,8.03
2019-05-01T02:31:07.579Z,7.97
2019-05-01T02:33:53.495Z,8.35
2019-05-01T02:36:39.624Z,8.30
2019-05-01T02:39:25.987Z,8.83
2019-05-01T02:42:13.465Z,8.75
2019-05-01T02:45:12.516Z,8.48
2019-05-01T02:47:59.378Z,8.80
2019-05-01T02:50:48.148Z,8.25
2019-05-01T02:53:36.123Z,8.53
2019-05-01T02:56:24.482Z,8.90
2019-05-01T02:59:09.971Z,9.05
2019-05-01T03:01:54.819Z,8.85
2019-05-01T03:04:40.711Z,8.88
2019-05-01T03:07:29.426Z,8.95
2019-05-01T03:10:20.776Z,8.80
2019-05-01T03:13:05.766Z,9.10
2019-05-01T03:18:53.697Z,8.85
2019-05-01T03:21:43.393Z,8.85
2019-05-01T03:24:29.161Z,8.98
2019-05-01T03:27:14.730Z,8.80
2019-05-01T03:29:59.791Z,8.00
2019-05-01T03:32:45.089Z,8.15
2019-05-01T03:35:30.451Z,8.20
2019-05-01T03:38:16.026Z,8.60
2019-05-01T03:41:02.067Z,8.48
2019-05-01T03:43:47.159Z,8.28
2019-05-01T03:46:32.410Z,8.55
2019-05-01T03:49:17.457Z,10.03
2019-05-01T03:52:02.209Z,9.00
2019-05-01T03:54:47.218Z,8.95
2019-05-01T03:57:32.479Z,8.78
2019-05-01T04:00:20.707Z,9.13
2019-05-01T04:03:13.453Z,8.90
2019-05-01T04:05:58.990Z,9.18
2019-05-01T04:08:44.102Z,8.83
2019-05-01T04:11:29.063Z,9.28
2019-05-01T04:14:14.236Z,9.23
2019-05-01T04:17:03.553Z,8.80
2019-05-01T04:19:49.700Z,9.33
2019-05-01T04:22:34.933Z,8.90
2019-05-01T04:25:20.774Z,8.28
2019-05-01T04:28:24.335Z,8.80
2019-05-01T04:31:11.631Z,8.30
2019-05-01T04:34:08.077Z,7.90
2019-05-01T04:36:54.854Z,8.33
2019-05-01T04:39:40.151Z,7.75
2019-05-01T04:42:25.667Z,8.45
2019-05-01T04:45:10.810Z,8.63
2019-05-01T04:47:56.105Z,9.25
2019-05-01T04:50:41.397Z,9.65
2019-05-01T04:53:26.795Z,9.43
2019-05-01T04:56:12.154Z,9.38
2019-05-01T04:58:57.867Z,8.98
2019-05-01T05:01:51.438Z,8.83
2019-05-01T05:04:37.032Z,9.43
2019-05-01T05:07:43.879Z,9.68
2019-05-01T05:10:32.596Z,9.63
2019-05-01T05:13:19.468Z,9.83
2019-05-01T05:16:10.085Z,9.63
2019-05-01T05:18:55.487Z,9.23
2019-05-01T05:21:40.653Z,10.00
2019-05-01T05:24:25.746Z,14.13
2019-05-01T05:27:11.809Z,12.88
2019-05-01T05:29:56.648Z,10.35
2019-05-01T05:32:42.350Z,13.18
2019-05-01T05:35:30.464Z,11.93
2019-05-01T05:38:28.053Z,10.75
2019-05-01T05:41:13.593Z,10.35
2019-05-01T05:43:58.694Z,9.88
2019-05-01T05:46:43.452Z,10.13
2019-05-01T05:49:29.245Z,9.75
2019-05-01T05:52:17.406Z,10.18
2019-05-01T05:55:11.352Z,10.72
2019-05-01T05:57:59.340Z,9.43
2019-05-01T06:00:54.869Z,10.48
2019-05-01T06:04:03.562Z,9.95
2019-05-01T06:07:01.660Z,10.25
2019-05-01T06:09:51.567Z,10.30
2019-05-01T06:12:48.275Z,10.53
2019-05-01T06:15:42.688Z,10.03
2019-05-01T06:18:30.069Z,11.08
2019-05-01T06:21:17.173Z,10.45
2019-05-01T06:24:06.695Z,10.23
2019-05-01T06:26:52.453Z,11.05
2019-05-01T06:29:37.908Z,11.85
2019-05-01T06:32:23.238Z,11.22
2019-05-01T06:35:08.512Z,10.90
2019-05-01T06:38:09.690Z,10.82
2019-05-01T06:40:58.223Z,11.10
2019-05-01T06:43:47.890Z,10.63
2019-05-01T06:46:38.178Z,10.68
2019-05-01T06:49:29.281Z,10.50
2019-05-01T06:52:19.780Z,11.33
2019-05-01T06:55:05.678Z,11.15
2019-05-01T06:57:50.673Z,10.82
2019-05-01T07:00:39.186Z,11.18
2019-05-01T07:03:25.009Z,10.85
2019-05-01T07:06:14.491Z,10.93
2019-05-01T07:08:58.091Z,10.72
2019-05-01T07:11:47.576Z,10.38
2019-05-01T07:14:30.113Z,11.63
2019-05-01T07:17:15.335Z,10.93
2019-05-01T07:20:18.572Z,10.13
2019-05-01T07:23:04.300Z,10.75
2019-05-01T07:25:49.420Z,11.03
2019-05-01T07:28:36.329Z,11.08
2019-05-01T07:31:21.472Z,11.10
2019-05-01T07:34:16.284Z,11.88
2019-05-01T07:36:53.605Z,11.25
2019-05-01T07:39:39.061Z,11.70
2019-05-01T07:42:26.357Z,11.48
2019-05-01T07:45:13.877Z,11.97
2019-05-01T07:48:00.894Z,11.60
2019-05-01T07:50:45.980Z,12.78
2019-05-01T07:53:32.065Z,14.20
2019-05-01T07:56:17.352Z,13.03
2019-05-01T07:59:02.747Z,13.35
2019-05-01T08:01:54.477Z,13.40
2019-05-01T08:04:37.465Z,14.58
2019-05-01T08:07:22.520Z,14.03
2019-05-01T08:10:07.977Z,13.90
2019-05-01T08:12:55.449Z,14.80
2019-05-01T08:15:39.933Z,14.40
2019-05-01T08:18:28.000Z,14.83
2019-05-01T08:21:26.202Z,14.73
2019-05-01T08:24:11.760Z,14.47
2019-05-01T08:26:56.872Z,13.55
2019-05-01T08:29:55.675Z,15.40
2019-05-01T08:32:48.253Z,18.25
2019-05-01T08:35:36.502Z,16.07
2019-05-01T08:38:20.470Z,17.55
2019-05-01T08:41:06.732Z,16.10
2019-05-01T08:43:54.197Z,15.23
2019-05-01T08:46:40.736Z,15.58
2019-05-01T08:49:36.478Z,14.38
2019-05-01T08:52:21.561Z,13.83
2019-05-01T08:55:09.212Z,11.35
2019-05-01T08:57:53.721Z,13.55
2019-05-01T09:00:41.137Z,12.45
2019-05-01T09:03:25.721Z,13.08
2019-05-01T09:06:10.458Z,13.08
2019-05-01T09:08:55.375Z,14.47
2019-05-01T09:11:40.086Z,14.07
2019-05-01T09:14:24.988Z,11.80
2019-05-01T09:17:09.997Z,13.22
2019-05-01T09:19:54.732Z,14.45
2019-05-01T09:22:39.933Z,14.73
2019-05-01T09:25:26.785Z,15.43
2019-05-01T09:28:25.509Z,14.30
2019-05-01T09:31:12.466Z,15.32
2019-05-01T09:33:57.418Z,16.27
2019-05-01T09:36:42.854Z,15.80
2019-05-01T09:39:28.805Z,16.02
2019-05-01T09:42:22.870Z,16.27
2019-05-01T09:45:00.765Z,15.08
2019-05-01T09:47:45.649Z,12.98
2019-05-01T09:50:32.680Z,14.23
2019-05-01T09:53:23.479Z,13.55
2019-05-01T09:56:13.027Z,13.72
2019-05-01T09:58:58.301Z,13.08
2019-05-01T10:01:43.834Z,12.88
2019-05-01T10:04:30.166Z,13.28
2019-05-01T10:07:15.547Z,11.20
2019-05-01T10:10:00.586Z,12.18
2019-05-01T10:12:47.094Z,12.78
2019-05-01T10:15:32.440Z,12.95
2019-05-01T10:18:17.205Z,13.08
2019-05-01T10:21:01.988Z,13.13
2019-05-01T10:23:47.025Z,12.80
2019-05-01T10:26:35.474Z,12.00
2019-05-01T10:29:25.849Z,11.85
2019-05-01T10:32:17.028Z,11.25
2019-05-01T10:35:02.846Z,12.68
2019-05-01T10:37:47.772Z,11.08
2019-05-01T10:40:34.356Z,9.58
2019-05-01T10:43:19.594Z,9.70
2019-05-01T10:46:04.465Z,9.73
2019-05-01T10:48:49.766Z,8.10
2019-05-01T10:51:34.687Z,8.40
2019-05-01T10:54:19.508Z,8.78
2019-05-01T10:57:04.665Z,7.70
2019-05-01T10:59:49.854Z,8.00
2019-05-01T11:02:34.615Z,7.50
2019-05-01T11:05:19.386Z,7.33
2019-05-01T11:08:04.373Z,7.95
2019-05-01T11:10:49.487Z,8.28
2019-05-01T11:13:34.926Z,8.68
2019-05-01T11:16:19.813Z,8.55
2019-05-01T11:19:05.191Z,8.20
2019-05-01T11:21:50.045Z,8.28
2019-05-01T11:24:35.328Z,8.10
2019-05-01T11:27:20.432Z,7.28
2019-05-01T11:30:06.389Z,7.72
2019-05-01T11:32:58.966Z,8.35
2019-05-01T11:36:09.604Z,8.98
2019-05-01T11:38:53.347Z,9.43
2019-05-01T11:41:42.714Z,8.25
2019-05-01T11:44:27.907Z,8.70
2019-05-01T11:47:12.757Z,7.97
2019-05-01T11:49:57.738Z,8.18
2019-05-01T11:52:42.389Z,8.03
2019-05-01T11:55:27.290Z,7.55
2019-05-01T11:58:11.989Z,7.17
2019-05-01T12:00:58.778Z,7.50
2019-05-01T12:03:43.699Z,7.53
2019-05-01T12:06:28.657Z,8.30
2019-05-01T12:09:13.768Z,8.88
2019-05-01T12:12:01.461Z,8.18
2019-05-01T12:14:47.045Z,7.83
2019-05-01T12:17:34.149Z,7.75
2019-05-01T12:20:20.154Z,7.25
2019-05-01T12:23:04.965Z,8.00
2019-05-01T12:25:50.109Z,7.85
2019-05-01T12:28:35.109Z,7.50
2019-05-01T12:31:19.769Z,8.10
2019-05-01T12:34:04.889Z,7.53
2019-05-01T12:36:51.472Z,7.17
2019-05-01T12:39:36.502Z,7.60
2019-05-01T12:42:23.353Z,7.78
2019-05-01T12:45:10.317Z,7.15
2019-05-01T12:47:56.993Z,7.05
2019-05-01T12:50:42.181Z,7.10
2019-05-01T12:53:29.116Z,7.58
2019-05-01T12:56:16.073Z,8.13
2019-05-01T12:59:01.088Z,7.05
2019-05-01T13:01:46.070Z,7.00
2019-05-01T13:04:30.837Z,6.70
2019-05-01T13:07:15.916Z,6.78
2019-05-01T13:10:01.282Z,7.33
2019-05-01T13:12:46.331Z,6.58
2019-05-01T13:15:31.121Z,7.95
2019-05-01T13:18:15.857Z,7.12
2019-05-01T13:21:00.741Z,6.75
2019-05-01T13:23:45.616Z,6.92
2019-05-01T13:26:32.333Z,6.70
2019-05-01T13:29:22.121Z,6.45
2019-05-01T13:32:21.379Z,7.12
2019-05-01T13:35:06.969Z,6.70
2019-05-01T13:37:52.121Z,6.65
2019-05-01T13:40:36.802Z,7.37
2019-05-01T13:43:21.861Z,7.28
2019-05-01T13:46:07.086Z,7.25
2019-05-01T13:48:52.040Z,6.15
2019-05-01T13:51:38.344Z,6.72
2019-05-01T13:54:23.326Z,7.70
2019-05-01T13:57:08.811Z,7.80
2019-05-01T13:59:54.118Z,7.20
2019-05-01T14:02:39.202Z,7.10
2019-05-01T14:05:24.503Z,6.78
2019-05-01T14:08:09.250Z,6.70
2019-05-01T14:10:54.109Z,7.55
2019-05-01T14:13:38.984Z,6.35
2019-05-01T14:16:24.183Z,6.35
2019-05-01T14:19:09.050Z,5.97
2019-05-01T14:21:55.921Z,5.97
2019-05-01T14:24:48.553Z,6.15
2019-05-01T14:27:33.903Z,5.37
2019-05-01T14:30:18.661Z,5.78
2019-05-01T14:33:03.653Z,7.20
2019-05-01T14:35:48.382Z,6.80
2019-05-01T14:38:33.388Z,6.90
2019-05-01T14:41:18.179Z,6.87
2019-05-01T14:44:04.523Z,6.30
2019-05-01T14:46:49.757Z,5.92
2019-05-01T14:49:34.453Z,6.22
2019-05-01T14:52:19.268Z,6.03
2019-05-01T14:55:05.255Z,6.65
2019-05-01T14:57:50.436Z,6.55
2019-05-01T15:00:35.574Z,5.53
2019-05-01T15:03:20.558Z,5.60
2019-05-01T15:06:05.397Z,5.50
2019-05-01T15:08:50.116Z,5.58
2019-05-01T15:11:35.236Z,6.05
2019-05-01T15:14:22.273Z,5.97
2019-05-01T15:17:15.112Z,7.42
2019-05-01T15:20:01.830Z,5.87
2019-05-01T15:22:47.398Z,5.97
2019-05-01T15:25:32.615Z,5.20
2019-05-01T15:28:17.592Z,6.55
2019-05-01T15:31:02.587Z,6.12
2019-05-01T15:33:47.673Z,5.87
2019-05-01T15:36:32.488Z,5.55
2019-05-01T15:39:19.405Z,6.35
2019-05-01T15:42:23.029Z,6.85
2019-05-01T15:45:07.916Z,7.90
2019-05-01T15:47:53.025Z,6.87
2019-05-01T15:50:38.032Z,6.47
2019-05-01T15:53:22.839Z,5.75
2019-05-01T15:56:07.670Z,5.50
2019-05-01T15:58:52.617Z,4.70
2019-05-01T16:01:37.579Z,5.17
2019-05-01T16:04:23.428Z,5.65
2019-05-01T16:07:09.903Z,6.03
2019-05-01T16:09:55.013Z,6.67
2019-05-01T16:12:41.604Z,5.28
2019-05-01T16:15:28.759Z,5.50
2019-05-01T16:18:13.963Z,6.53
2019-05-01T16:20:58.816Z,5.50
2019-05-01T16:23:43.675Z,5.50
2019-05-01T16:26:28.715Z,5.45
2019-05-01T16:29:13.941Z,5.20
2019-05-01T16:31:58.925Z,5.42
2019-05-01T16:34:44.194Z,5.10
2019-05-01T16:37:29.284Z,6.00
2019-05-01T16:40:28.274Z,5.17
2019-05-01T16:43:13.733Z,5.87
2019-05-01T16:45:59.710Z,6.10
2019-05-01T16:48:45.239Z,5.35
2019-05-01T16:51:30.083Z,5.03
2019-05-01T16:54:14.942Z,5.17
2019-05-01T16:56:59.589Z,5.03
2019-05-01T16:59:44.379Z,6.20
2019-05-01T17:02:49.774Z,5.30
2019-05-01T17:05:39.534Z,5.55
2019-05-01T17:08:36.739Z,5.17
2019-05-01T17:11:24.004Z,4.67
2019-05-01T17:14:11.224Z,4.80
2019-05-01T17:16:56.226Z,4.80
2019-05-01T17:19:41.389Z,4.40
2019-05-01T17:22:26.137Z,4.97
2019-05-01T17:25:11.228Z,4.92
2019-05-01T17:27:56.369Z,5.03
2019-05-01T17:30:44.464Z,5.05
2019-05-01T17:33:29.583Z,5.10
2019-05-01T17:36:14.682Z,5.30
2019-05-01T17:39:00.241Z,5.20
2019-05-01T17:41:45.543Z,5.42
2019-05-01T17:44:30.725Z,5.10
2019-05-01T17:47:17.876Z,5.00
2019-05-01T17:50:03.559Z,4.65
2019-05-01T17:52:48.979Z,5.65
2019-05-01T17:55:33.612Z,5.42
2019-05-01T17:58:18.930Z,5.33
2019-05-01T18:01:22.689Z,5.47
2019-05-01T18:04:18.868Z,4.92
2019-05-01T18:07:03.970Z,5.00
2019-05-01T18:09:51.377Z,5.00
2019-05-01T18:12:36.908Z,4.78
2019-05-01T18:15:22.119Z,4.80
2019-05-01T18:18:10.712Z,6.10
2019-05-01T18:20:54.554Z,5.30
2019-05-01T18:23:59.952Z,5.22
2019-05-01T18:26:47.025Z,4.92
2019-05-01T18:29:46.020Z,5.47
2019-05-01T18:32:36.494Z,5.70
2019-05-01T18:35:21.687Z,5.33
2019-05-01T18:38:20.530Z,5.92
2019-05-01T18:41:07.716Z,5.95
2019-05-01T18:43:52.853Z,5.65
2019-05-01T18:46:39.098Z,5.87
2019-05-01T18:49:24.330Z,6.10
2019-05-01T18:52:09.345Z,5.92
2019-05-01T18:54:54.173Z,6.35
2019-05-01T18:57:39.235Z,6.87
2019-05-01T19:00:24.147Z,5.37
2019-05-01T19:03:09.422Z,6.80
2019-05-01T19:05:54.181Z,7.70
2019-05-01T19:08:39.361Z,7.83
2019-05-01T19:11:24.315Z,7.35
2019-05-01T19:14:10.041Z,7.53
2019-05-01T19:16:55.409Z,7.03
2019-05-01T19:19:40.201Z,8.15
2019-05-01T19:22:25.156Z,6.70
2019-05-01T19:25:15.933Z,6.62
2019-05-01T19:27:57.760Z,7.37
2019-05-01T19:30:43.386Z,8.58
2019-05-01T19:33:28.839Z,7.55
2019-05-01T19:36:14.258Z,7.42
2019-05-01T19:38:59.260Z,6.42
2019-05-01T19:41:49.166Z,7.03
2019-05-01T19:44:31.520Z,6.33
2019-05-01T19:47:16.887Z,6.67
2019-05-01T19:50:09.518Z,6.33
2019-05-01T19:52:54.782Z,6.17
2019-05-01T19:55:44.728Z,6.22
2019-05-01T19:58:27.183Z,6.67
2019-05-01T20:01:12.010Z,7.05
2019-05-01T20:03:56.989Z,6.62
2019-05-01T20:06:42.087Z,6.05
2019-05-01T20:09:27.260Z,6.00
2019-05-01T20:12:11.951Z,6.08
2019-05-01T20:14:57.442Z,6.60
2019-05-01T20:17:42.202Z,6.00
2019-05-01T20:20:27.333Z,6.55
2019-05-01T20:23:12.732Z,5.70
2019-05-01T20:25:57.536Z,5.92
2019-05-01T20:28:42.688Z,6.00
2019-05-01T20:31:28.305Z,6.08
2019-05-01T20:34:17.281Z,6.50
2019-05-01T20:37:02.373Z,6.40
2019-05-01T20:39:47.450Z,6.15
2019-05-01T20:42:32.257Z,5.75
2019-05-01T20:45:18.452Z,6.10
2019-05-01T20:48:04.728Z,6.10
2019-05-01T20:50:49.990Z,5.95
2019-05-01T20:53:34.874Z,6.58
2019-05-01T20:56:21.910Z,6.30
2019-05-01T20:59:06.854Z,6.12
2019-05-01T21:01:52.308Z,5.80
2019-05-01T21:04:56.024Z,6.22
2019-05-01T21:07:42.629Z,5.40
2019-05-01T21:10:50.754Z,6.22
2019-05-01T21:13:33.957Z,6.20
2019-05-01T21:16:18.857Z,5.70
2019-05-01T21:19:03.830Z,6.40
2019-05-01T21:21:48.653Z,5.97
2019-05-01T21:24:34.110Z,5.60
2019-05-01T21:27:19.294Z,5.95
2019-05-01T21:30:05.756Z,5.90
2019-05-01T21:32:51.545Z,6.00
2019-05-01T21:35:36.378Z,6.67
2019-05-01T21:38:21.382Z,6.15
2019-05-01T21:41:05.954Z,6.92
2019-05-01T21:43:52.656Z,7.15
2019-05-01T21:46:39.167Z,7.33
2019-05-01T21:49:24.547Z,6.92
2019-05-01T21:52:09.338Z,7.08
2019-05-01T21:54:55.278Z,7.17
2019-05-01T21:57:40.962Z,6.65
2019-05-01T22:00:27.870Z,7.45
2019-05-01T22:03:16.605Z,6.85
2019-05-01T22:06:01.337Z,6.60
2019-05-01T22:08:46.147Z,6.53
2019-05-01T22:11:33.090Z,6.00
2019-05-01T22:14:26.265Z,6.42
2019-05-01T22:17:32.205Z,6.20
2019-05-01T22:20:18.749Z,6.33
2019-05-01T22:23:06.073Z,6.47
2019-05-01T22:25:55.729Z,6.60
2019-05-01T22:28:44.194Z,5.70
2019-05-01T22:31:37.014Z,6.00
2019-05-01T22:34:26.360Z,7.03
2019-05-01T22:37:11.081Z,6.22
2019-05-01T22:40:00.544Z,6.03
2019-05-01T22:42:45.736Z,6.75
2019-05-01T22:45:30.693Z,7.12
2019-05-01T22:48:15.456Z,6.60
2019-05-01T22:51:02.173Z,7.47
2019-05-01T22:53:49.105Z,6.62
2019-05-01T22:56:34.357Z,6.87
2019-05-01T22:59:19.234Z,6.85
2019-05-01T23:02:18.354Z,7.28
2019-05-01T23:05:06.332Z,7.10
2019-05-01T23:07:51.300Z,6.90
2019-05-01T23:10:36.298Z,7.00
2019-05-01T23:13:21.470Z,6.62
2019-05-01T23:16:06.611Z,6.90
2019-05-01T23:18:52.232Z,6.70
2019-05-01T23:21:38.376Z,7.40
2019-05-01T23:24:23.161Z,7.22
2019-05-01T23:27:07.928Z,7.42
2019-05-01T23:29:52.898Z,7.00
2019-05-01T23:32:37.934Z,6.80
2019-05-01T23:35:22.609Z,7.47
2019-05-01T23:38:07.512Z,6.87
2019-05-01T23:40:52.962Z,8.00
2019-05-01T23:43:39.129Z,8.28
2019-05-01T23:46:23.986Z,7.85
2019-05-01T23:49:08.966Z,8.05
2019-05-01T23:51:53.893Z,7.83
2019-05-01T23:54:58.546Z,8.08
2019-05-01T23:57:43.416Z,8.40
